Terminal Aerodrome Forecast
Issued by NWS North Platte, NE

Home | Current Version | Previous Version | Graphics & Text | Print | Product List | Glossary On
Versions: 1 2 3 4 5 6 7 8 9 10 11 12 13 14 15 16
000
FTUS43 KLBF 261000 AAB
TAFVTN
TAF AMD
KVTN 261039Z 2611/2706 14011KT P6SM SCT015 BKN029
      TEMPO 2611/2613 BKN015
     FM261300 14013KT P6SM OVC015
      TEMPO 2616/2618 SCT015 OVC050
     FM261800 13011KT P6SM OVC050=

USA.gov is the U.S. government's official web portal to all federal, state and local government web resources and services.